Time;durP1;ratioP1;P1;durP2;ratioP2;P2;SDS_P1;SDS_P2;PMS_P1;PMS_P2;Temp;Humidity;BMP_temperature;BMP_pressure;BME280_temperature;BME280_humidity;BME280_pressure;Samples;Min_cycle;Max_cycle;Signal;HPM_P1;HPM_P2
2022/11/26 00:00:52;;;;;;;;;;;10.80;99.90;;;;;;5093171;28;19951;-76
2022/11/26 00:03:18;;;;;;;;;;;10.80;99.90;;;;;;5093001;28;20384;-76
2022/11/26 00:05:45;;;;;;;;;;;10.80;99.90;;;;;;5093390;28;19930;-76
2022/11/26 00:08:27;;;;;;;;;;;10.90;99.90;;;;;;5092788;28;19908;-76
2022/11/26 00:10:53;;;;;;;;;;;10.80;99.90;;;;;;5092653;28;19909;-76
2022/11/26 00:13:20;;;;;;;;;;;10.90;99.90;;;;;;5093210;28;20003;-76
2022/11/26 00:15:47;;;;;;;;;;;10.90;99.90;;;;;;5093275;28;20002;-76
2022/11/26 00:18:14;;;;;;;;;;;10.90;99.90;;;;;;5096775;28;19912;-76
2022/11/26 00:20:40;;;;;;;;;;;11.00;99.90;;;;;;5097285;28;19912;-75
2022/11/26 00:23:06;;;;;;;;;;;11.00;99.90;;;;;;5096329;28;19912;-74
2022/11/26 00:25:39;;;;;;;;;;;11.00;99.90;;;;;;5097017;28;19974;-76
2022/11/26 00:28:18;;;;;;;;;;;11.00;99.90;;;;;;5096705;28;19908;-75
2022/11/26 00:30:44;;;;;;;;;;;11.10;99.90;;;;;;5097130;28;19915;-77
2022/11/26 00:33:10;;;;;;;;;;;11.00;99.90;;;;;;5096678;28;20269;-75
2022/11/26 00:35:35;;;;;;;;;;;11.10;99.90;;;;;;5096732;28;19908;-74
2022/11/26 00:38:01;;;;;;;;;;;11.10;99.90;;;;;;5096065;28;20010;-75
2022/11/26 00:40:29;;;;;;;;;;;11.10;99.90;;;;;;5096885;28;19912;-74
2022/11/26 00:42:55;;;;;;;;;;;11.00;99.90;;;;;;5096152;28;19908;-75
2022/11/26 00:45:22;;;;;;;;;;;11.00;99.90;;;;;;5096594;28;19909;-74
2022/11/26 00:47:48;;;;;;;;;;;11.00;99.90;;;;;;5111978;28;19908;-74
2022/11/26 00:50:16;;;;;;;;;;;11.00;99.90;;;;;;5096146;28;20399;-75
2022/11/26 00:52:42;;;;;;;;;;;11.00;99.90;;;;;;5096548;28;19908;-75
2022/11/26 00:55:21;;;;;;;;;;;10.90;99.90;;;;;;5095982;28;19915;-75
2022/11/26 00:57:46;;;;;;;;;;;11.00;99.90;;;;;;5112316;28;19912;-77
2022/11/26 01:00:13;;;;;;;;;;;11.00;99.90;;;;;;5096345;28;20368;-77
2022/11/26 01:02:39;;;;;;;;;;;11.10;99.90;;;;;;5096439;28;19919;-77
2022/11/26 01:05:05;;;;;;;;;;;11.20;99.90;;;;;;5096279;28;19908;-77
2022/11/26 01:07:31;;;;;;;;;;;11.20;99.90;;;;;;5096412;28;19908;-77
2022/11/26 01:09:56;;;;;;;;;;;11.20;99.90;;;;;;5095845;28;19915;-77
2022/11/26 01:12:22;;;;;;;;;;;11.20;99.90;;;;;;5096226;28;20362;-77
2022/11/26 01:14:48;;;;;;;;;;;11.30;99.90;;;;;;5096560;28;19987;-77
2022/11/26 01:17:13;;;;;;;;;;;11.30;99.90;;;;;;5095607;28;20243;-77
2022/11/26 01:19:39;;;;;;;;;;;11.30;99.90;;;;;;5096362;28;20015;-76
2022/11/26 01:22:04;;;;;;;;;;;11.30;99.90;;;;;;5095692;28;19962;-77
2022/11/26 01:24:30;;;;;;;;;;;11.30;99.90;;;;;;5096151;28;19908;-77
2022/11/26 01:26:55;;;;;;;;;;;11.30;99.90;;;;;;5095421;28;20277;-77
2022/11/26 01:29:21;;;;;;;;;;;11.30;99.90;;;;;;5095395;28;19954;-77
2022/11/26 01:31:46;;;;;;;;;;;11.30;99.90;;;;;;5095991;28;19909;-76
2022/11/26 01:34:12;;;;;;;;;;;11.30;99.90;;;;;;5095830;28;19999;-77
2022/11/26 01:36:38;;;;;;;;;;;11.30;99.90;;;;;;5095722;28;20311;-77
2022/11/26 01:39:04;;;;;;;;;;;11.30;99.90;;;;;;5095435;28;20409;-77
2022/11/26 01:41:48;;;;;;;;;;;11.30;99.90;;;;;;5095361;28;19950;-77
2022/11/26 01:44:15;;;;;;;;;;;11.20;99.90;;;;;;5094767;28;19987;-77
2022/11/26 01:46:41;;;;;;;;;;;11.30;99.90;;;;;;5095699;28;19954;-77
2022/11/26 01:49:21;;;;;;;;;;;11.30;99.90;;;;;;5094976;28;19908;-76
2022/11/26 01:51:47;;;;;;;;;;;11.40;99.90;;;;;;5095636;28;19959;-77
2022/11/26 01:54:14;;;;;;;;;;;11.40;99.90;;;;;;5095118;28;19994;-77
2022/11/26 01:56:42;;;;;;;;;;;11.40;99.90;;;;;;5095366;28;19931;-77
2022/11/26 01:59:20;;;;;;;;;;;11.40;99.90;;;;;;5094735;28;19912;-77
2022/11/26 02:01:48;;;;;;;;;;;11.40;99.90;;;;;;5094618;28;19966;-77
2022/11/26 02:04:21;;;;;;;;;;;11.40;99.90;;;;;;5076585;28;19908;-77
2022/11/26 02:06:48;;;;;;;;;;;11.40;99.90;;;;;;5095121;28;19922;-77
2022/11/26 02:09:14;;;;;;;;;;;11.50;99.90;;;;;;5095203;28;19931;-77
2022/11/26 02:11:40;;;;;;;;;;;11.50;99.90;;;;;;5095196;28;19943;-77
2022/11/26 02:14:13;;;;;;;;;;;11.40;99.90;;;;;;5094400;28;19953;-77
2022/11/26 02:17:16;;;;;;;;;;;11.40;99.90;;;;;;5094613;28;19908;-77
2022/11/26 02:20:00;;;;;;;;;;;11.40;99.90;;;;;;5052481;28;19917;-77
2022/11/26 02:22:26;;;;;;;;;;;11.30;99.90;;;;;;5052507;28;19992;-77
2022/11/26 02:25:04;;;;;;;;;;;11.30;99.90;;;;;;5077218;28;19908;-77
2022/11/26 02:27:36;;;;;;;;;;;11.30;99.90;;;;;;5094407;28;19912;-77
2022/11/26 02:30:08;;;;;;;;;;;11.30;99.90;;;;;;5094396;28;19934;-77
2022/11/26 02:32:59;;;;;;;;;;;11.20;99.90;;;;;;5110746;28;20011;-75
2022/11/26 02:35:29;;;;;;;;;;;11.20;99.90;;;;;;5094786;28;19908;-75
2022/11/26 02:38:01;;;;;;;;;;;11.20;99.90;;;;;;5094658;28;19912;-75
2022/11/26 02:40:27;;;;;;;;;;;11.20;99.90;;;;;;5093636;28;20007;-75
2022/11/26 02:42:53;;;;;;;;;;;11.20;99.90;;;;;;5094949;28;19956;-75
2022/11/26 02:45:30;;;;;;;;;;;11.10;99.90;;;;;;5093937;28;19966;-76
2022/11/26 02:47:56;;;;;;;;;;;11.20;99.90;;;;;;5094617;28;19956;-75
2022/11/26 02:50:27;;;;;;;;;;;11.10;99.90;;;;;;5094032;28;19908;-75
2022/11/26 02:52:54;;;;;;;;;;;11.10;99.90;;;;;;5094538;28;19912;-75
2022/11/26 02:55:21;;;;;;;;;;;11.20;99.90;;;;;;5093518;28;19912;-75
2022/11/26 02:57:48;;;;;;;;;;;11.20;99.90;;;;;;5093959;28;19912;-75
2022/11/26 03:00:14;;;;;;;;;;;11.20;99.90;;;;;;5093617;28;19912;-75
2022/11/26 03:02:49;;;;;;;;;;;11.20;99.90;;;;;;5094199;28;20012;-75
2022/11/26 03:05:16;;;;;;;;;;;11.10;99.90;;;;;;5109205;28;19991;-75
2022/11/26 03:07:44;;;;;;;;;;;11.20;99.90;;;;;;5093996;28;19908;-75
2022/11/26 03:10:10;;;;;;;;;;;11.20;99.90;;;;;;5093701;28;19908;-75
2022/11/26 03:12:35;;;;;;;;;;;11.30;99.90;;;;;;5093978;28;20380;-75
2022/11/26 03:15:01;;;;;;;;;;;11.30;99.90;;;;;;5093409;28;19970;-75
2022/11/26 03:17:27;;;;;;;;;;;11.30;99.90;;;;;;5093719;28;20268;-75
2022/11/26 03:19:52;;;;;;;;;;;11.30;99.90;;;;;;5075817;28;19957;-75
2022/11/26 03:22:18;;;;;;;;;;;11.30;99.90;;;;;;5093209;28;20007;-75
2022/11/26 03:24:43;;;;;;;;;;;11.40;99.90;;;;;;5093580;28;19909;-75
2022/11/26 03:27:09;;;;;;;;;;;11.40;99.90;;;;;;5093447;28;19915;-75
2022/11/26 03:29:34;;;;;;;;;;;11.50;99.90;;;;;;5093837;28;20308;-75
2022/11/26 03:32:00;;;;;;;;;;;11.40;99.90;;;;;;5093139;28;19908;-75
2022/11/26 03:34:26;;;;;;;;;;;11.40;99.90;;;;;;5093198;28;19998;-75
2022/11/26 03:36:51;;;;;;;;;;;11.40;99.90;;;;;;5093708;28;20349;-75
2022/11/26 03:39:17;;;;;;;;;;;11.50;99.90;;;;;;5093156;28;19913;-75
2022/11/26 03:41:43;;;;;;;;;;;11.50;99.90;;;;;;5093513;28;20365;-75
2022/11/26 03:44:09;;;;;;;;;;;11.50;99.90;;;;;;5093014;28;19912;-75
2022/11/26 03:46:35;;;;;;;;;;;11.50;99.90;;;;;;5093265;28;19948;-76
2022/11/26 03:49:00;;;;;;;;;;;11.60;99.90;;;;;;5093235;28;20000;-75
2022/11/26 03:51:26;;;;;;;;;;;11.60;99.90;;;;;;5092579;28;20392;-76
2022/11/26 03:53:51;;;;;;;;;;;11.60;99.90;;;;;;5093697;28;20003;-75
2022/11/26 03:56:17;;;;;;;;;;;11.60;99.90;;;;;;5092840;28;20341;-76
2022/11/26 03:58:42;;;;;;;;;;;11.70;99.90;;;;;;5093292;28;19912;-76
2022/11/26 04:01:09;;;;;;;;;;;11.70;99.90;;;;;;5092533;28;19917;-75
2022/11/26 04:03:35;;;;;;;;;;;11.70;99.90;;;;;;5093254;28;20273;-75
2022/11/26 04:06:00;;;;;;;;;;;11.80;99.90;;;;;;5093276;28;19908;-76
2022/11/26 04:08:26;;;;;;;;;;;11.80;99.90;;;;;;5092779;28;19931;-76
2022/11/26 04:10:51;;;;;;;;;;;11.80;99.90;;;;;;5092974;28;19977;-75
2022/11/26 04:13:17;;;;;;;;;;;11.80;99.90;;;;;;5092813;28;19991;-75
2022/11/26 04:15:42;;;;;;;;;;;11.80;99.90;;;;;;5093044;28;20310;-76
2022/11/26 04:18:08;;;;;;;;;;;11.90;99.90;;;;;;5092497;28;19916;-75
2022/11/26 04:20:34;;;;;;;;;;;11.90;99.90;;;;;;5092936;28;19912;-75
2022/11/26 04:23:00;;;;;;;;;;;12.00;99.90;;;;;;5093307;28;19908;-75
2022/11/26 04:25:25;;;;;;;;;;;11.90;99.90;;;;;;5093014;28;20049;-75
2022/11/26 04:27:51;;;;;;;;;;;12.00;99.90;;;;;;5092739;28;20353;-75
2022/11/26 04:30:16;;;;;;;;;;;12.00;99.90;;;;;;5092389;28;19908;-75
2022/11/26 04:32:42;;;;;;;;;;;12.00;99.90;;;;;;5093141;28;19966;-75
2022/11/26 04:35:08;;;;;;;;;;;12.00;99.90;;;;;;5074452;28;19908;-75
2022/11/26 04:37:33;;;;;;;;;;;11.90;99.90;;;;;;5092624;28;19999;-75
2022/11/26 04:39:59;;;;;;;;;;;11.90;99.90;;;;;;5093023;28;20353;-75
2022/11/26 04:42:24;;;;;;;;;;;11.80;99.90;;;;;;5092461;28;20458;-75
2022/11/26 04:44:50;;;;;;;;;;;11.80;99.90;;;;;;5074448;28;19951;-75
2022/11/26 04:47:15;;;;;;;;;;;11.80;99.90;;;;;;5074120;28;19945;-75
2022/11/26 04:49:41;;;;;;;;;;;11.80;99.90;;;;;;5092731;28;19944;-75
2022/11/26 04:52:07;;;;;;;;;;;11.80;99.90;;;;;;5092535;28;19915;-75
2022/11/26 04:54:32;;;;;;;;;;;11.80;99.90;;;;;;5093042;28;19928;-76
2022/11/26 04:56:58;;;;;;;;;;;11.80;99.90;;;;;;5092478;28;19920;-75
2022/11/26 04:59:23;;;;;;;;;;;11.80;99.90;;;;;;5092378;28;19939;-75
2022/11/26 05:01:49;;;;;;;;;;;11.80;99.90;;;;;;5092826;28;19912;-75
2022/11/26 05:04:14;;;;;;;;;;;11.90;99.90;;;;;;5094201;28;19969;-75
2022/11/26 05:06:40;;;;;;;;;;;11.80;99.90;;;;;;5096428;28;19909;-76
2022/11/26 05:09:05;;;;;;;;;;;11.80;99.90;;;;;;5096448;28;19915;-75
2022/11/26 05:11:31;;;;;;;;;;;11.70;99.90;;;;;;5078001;28;20357;-76
2022/11/26 05:13:57;;;;;;;;;;;11.70;99.90;;;;;;5111898;28;19908;-75
2022/11/26 05:16:22;;;;;;;;;;;11.70;99.90;;;;;;5095486;28;20369;-75
2022/11/26 05:18:48;;;;;;;;;;;11.70;99.90;;;;;;5095971;28;20078;-75
2022/11/26 05:21:13;;;;;;;;;;;11.70;99.90;;;;;;5095493;28;19935;-75
2022/11/26 05:23:39;;;;;;;;;;;11.70;99.90;;;;;;5095997;28;19955;-76
2022/11/26 05:26:04;;;;;;;;;;;11.60;99.90;;;;;;5096126;28;20269;-75
2022/11/26 05:28:30;;;;;;;;;;;11.60;99.90;;;;;;5096011;28;19914;-75
2022/11/26 05:30:57;;;;;;;;;;;11.60;99.90;;;;;;5095868;28;19943;-75
2022/11/26 05:33:23;;;;;;;;;;;11.60;99.90;;;;;;5077466;28;19908;-75
2022/11/26 05:35:48;;;;;;;;;;;11.60;99.90;;;;;;5096045;28;20379;-75
2022/11/26 05:38:14;;;;;;;;;;;11.60;99.90;;;;;;5095511;28;20272;-75
2022/11/26 05:40:39;;;;;;;;;;;11.60;99.90;;;;;;5077549;28;19919;-75
2022/11/26 05:43:05;;;;;;;;;;;11.70;99.90;;;;;;5095594;28;19908;-75
2022/11/26 05:45:31;;;;;;;;;;;11.80;99.90;;;;;;5095002;28;19914;-75
2022/11/26 05:47:56;;;;;;;;;;;11.80;99.90;;;;;;5095461;28;19908;-75
2022/11/26 05:50:22;;;;;;;;;;;11.90;99.90;;;;;;5076742;28;19908;-75
2022/11/26 05:52:47;;;;;;;;;;;11.90;99.90;;;;;;5095701;28;19908;-75
2022/11/26 05:55:15;;;;;;;;;;;12.00;99.90;;;;;;5095266;28;19908;-75
2022/11/26 05:57:40;;;;;;;;;;;12.00;99.90;;;;;;5077361;28;19912;-76
2022/11/26 06:00:06;;;;;;;;;;;12.00;99.90;;;;;;5095186;28;19958;-76
2022/11/26 06:02:32;;;;;;;;;;;12.00;99.90;;;;;;5094995;28;19908;-76
2022/11/26 06:04:57;;;;;;;;;;;12.10;99.90;;;;;;5095454;28;20361;-76
2022/11/26 06:07:23;;;;;;;;;;;12.10;99.90;;;;;;5076427;28;19908;-76
2022/11/26 06:09:48;;;;;;;;;;;12.10;99.90;;;;;;5095014;28;19912;-76
2022/11/26 06:12:14;;;;;;;;;;;12.10;99.90;;;;;;5094608;28;20405;-75
2022/11/26 06:14:39;;;;;;;;;;;12.20;99.90;;;;;;5095393;28;20289;-76
2022/11/26 06:17:05;;;;;;;;;;;12.20;99.90;;;;;;5095063;28;19908;-76
2022/11/26 06:19:31;;;;;;;;;;;12.20;99.90;;;;;;5076337;28;20020;-76
2022/11/26 06:21:56;;;;;;;;;;;12.20;99.90;;;;;;5094760;28;19912;-76
2022/11/26 06:24:22;;;;;;;;;;;12.30;99.90;;;;;;5094483;28;19908;-76
2022/11/26 06:26:47;;;;;;;;;;;12.30;99.90;;;;;;5094605;28;19912;-76
2022/11/26 06:29:13;;;;;;;;;;;12.30;99.90;;;;;;5094626;28;19912;-76
2022/11/26 06:31:38;;;;;;;;;;;12.20;99.90;;;;;;5095179;28;19947;-76
2022/11/26 06:34:04;;;;;;;;;;;12.30;99.90;;;;;;5094471;28;20363;-77
2022/11/26 06:36:30;;;;;;;;;;;12.30;99.90;;;;;;5094399;28;19915;-76
2022/11/26 06:38:55;;;;;;;;;;;12.20;99.90;;;;;;5094661;28;19918;-76
2022/11/26 06:41:21;;;;;;;;;;;12.20;99.90;;;;;;5094271;28;19912;-75
2022/11/26 06:43:46;;;;;;;;;;;12.20;99.90;;;;;;5094221;28;19944;-75
2022/11/26 06:46:12;;;;;;;;;;;12.20;99.90;;;;;;5094533;28;19915;-75
2022/11/26 06:48:38;;;;;;;;;;;12.20;99.90;;;;;;5094287;28;20257;-75
2022/11/26 06:51:05;;;;;;;;;;;12.30;99.90;;;;;;5094309;28;19908;-76
2022/11/26 06:53:31;;;;;;;;;;;12.30;99.90;;;;;;5075627;28;20353;-75
2022/11/26 06:56:03;;;;;;;;;;;12.40;99.90;;;;;;5094443;28;19927;-75
2022/11/26 06:58:29;;;;;;;;;;;12.40;99.90;;;;;;5093816;28;19916;-75
2022/11/26 07:00:55;;;;;;;;;;;12.50;99.90;;;;;;5094156;28;19912;-76
2022/11/26 07:03:21;;;;;;;;;;;12.50;99.90;;;;;;5109398;28;20006;-76
2022/11/26 07:05:47;;;;;;;;;;;12.50;99.90;;;;;;5094169;28;19942;-75
2022/11/26 07:08:12;;;;;;;;;;;12.60;99.90;;;;;;5094571;28;19908;-75
2022/11/26 07:10:38;;;;;;;;;;;12.60;99.90;;;;;;5093740;28;20376;-75
2022/11/26 07:13:03;;;;;;;;;;;12.60;99.90;;;;;;5094201;28;19929;-76
2022/11/26 07:15:29;;;;;;;;;;;12.60;99.90;;;;;;5075390;28;19922;-76
2022/11/26 07:17:55;;;;;;;;;;;12.70;99.90;;;;;;5094054;28;19912;-76
2022/11/26 07:20:20;;;;;;;;;;;12.70;99.90;;;;;;5092842;28;20369;-76
2022/11/26 07:22:46;;;;;;;;;;;12.70;99.90;;;;;;5093946;28;19960;-75
2022/11/26 07:25:11;;;;;;;;;;;12.70;99.90;;;;;;5093723;28;19908;-76
2022/11/26 07:27:37;;;;;;;;;;;12.80;99.90;;;;;;5092717;28;20002;-75
2022/11/26 07:30:03;;;;;;;;;;;12.80;99.90;;;;;;5093824;28;20273;-75
2022/11/26 07:32:29;;;;;;;;;;;12.70;99.90;;;;;;5093252;28;19912;-75
2022/11/26 07:34:55;;;;;;;;;;;12.70;99.90;;;;;;5093697;28;19908;-75
2022/11/26 07:37:20;;;;;;;;;;;12.70;99.90;;;;;;5092692;28;20273;-76
2022/11/26 07:39:46;;;;;;;;;;;12.70;99.90;;;;;;5093490;28;19919;-75
2022/11/26 07:42:12;;;;;;;;;;;12.70;99.90;;;;;;5093512;28;19909;-76
2022/11/26 07:44:38;;;;;;;;;;;12.70;99.90;;;;;;5092751;28;20516;-75
2022/11/26 07:47:04;;;;;;;;;;;12.70;99.90;;;;;;5093089;28;19952;-76
2022/11/26 07:49:29;;;;;;;;;;;12.70;99.90;;;;;;5092992;28;19908;-75
2022/11/26 07:51:55;;;;;;;;;;;12.70;99.90;;;;;;5109158;28;19908;-75
2022/11/26 07:54:20;;;;;;;;;;;12.70;99.90;;;;;;5108425;28;20409;-75
2022/11/26 07:56:46;;;;;;;;;;;12.70;99.90;;;;;;5093122;28;19920;-76
2022/11/26 07:59:12;;;;;;;;;;;12.70;99.90;;;;;;5093283;28;19945;-75
2022/11/26 08:01:37;;;;;;;;;;;12.70;99.90;;;;;;5092754;28;20048;-75
2022/11/26 08:04:04;;;;;;;;;;;12.70;99.90;;;;;;5093042;28;20302;-75
2022/11/26 08:06:30;;;;;;;;;;;12.70;99.90;;;;;;5074796;28;20016;-75
2022/11/26 08:08:59;;;;;;;;;;;12.70;99.90;;;;;;5093658;28;19923;-76
2022/11/26 08:11:26;;;;;;;;;;;12.70;99.90;;;;;;5092840;28;20042;-76
2022/11/26 08:14:02;;;;;;;;;;;12.70;99.90;;;;;;5093075;28;19908;-76
2022/11/26 08:16:28;;;;;;;;;;;12.70;99.90;;;;;;5092454;28;19909;-75
2022/11/26 08:18:54;;;;;;;;;;;12.80;99.90;;;;;;5074817;28;19918;-76
2022/11/26 08:21:20;;;;;;;;;;;12.80;99.90;;;;;;5092692;28;19912;-75
2022/11/26 08:23:46;;;;;;;;;;;12.80;99.90;;;;;;5092965;28;19914;-76
2022/11/26 08:26:12;;;;;;;;;;;12.80;99.90;;;;;;5093607;28;19908;-76
2022/11/26 08:28:38;;;;;;;;;;;12.80;99.90;;;;;;5092586;28;19937;-75
2022/11/26 08:31:05;;;;;;;;;;;12.70;99.90;;;;;;5092864;28;19999;-75
2022/11/26 08:33:31;;;;;;;;;;;12.80;99.90;;;;;;5092580;28;19908;-75
2022/11/26 08:35:56;;;;;;;;;;;12.70;99.90;;;;;;5093079;28;19991;-75
2022/11/26 08:38:22;;;;;;;;;;;12.80;99.90;;;;;;5092997;28;19954;-74
2022/11/26 08:40:48;;;;;;;;;;;12.80;99.90;;;;;;5096909;28;19957;-75
2022/11/26 08:43:13;;;;;;;;;;;12.90;99.90;;;;;;5096891;28;19915;-75
2022/11/26 08:45:39;;;;;;;;;;;12.90;99.90;;;;;;5096143;28;20319;-75
2022/11/26 08:48:04;;;;;;;;;;;12.80;99.90;;;;;;5096503;28;20006;-75
2022/11/26 08:50:30;;;;;;;;;;;12.80;99.90;;;;;;5096440;28;19915;-75
2022/11/26 08:52:56;;;;;;;;;;;12.80;99.90;;;;;;5096646;28;19908;-75
2022/11/26 08:55:21;;;;;;;;;;;12.80;99.90;;;;;;5096636;28;19912;-74
2022/11/26 08:57:47;;;;;;;;;;;12.80;99.90;;;;;;5096404;28;19965;-75
2022/11/26 09:00:13;;;;;;;;;;;12.80;99.90;;;;;;5096357;28;19955;-75
2022/11/26 09:02:38;;;;;;;;;;;12.90;99.90;;;;;;5096399;28;19969;-75
2022/11/26 09:05:04;;;;;;;;;;;12.90;99.90;;;;;;5096430;28;19959;-75
2022/11/26 09:07:30;;;;;;;;;;;13.00;99.90;;;;;;5095892;28;19913;-74
2022/11/26 09:09:55;;;;;;;;;;;13.00;99.90;;;;;;5095836;28;20268;-74
2022/11/26 09:12:21;;;;;;;;;;;13.00;99.90;;;;;;5096212;28;19915;-74
2022/11/26 09:14:46;;;;;;;;;;;13.00;99.90;;;;;;5077669;28;20028;-75
2022/11/26 09:17:12;;;;;;;;;;;13.00;99.90;;;;;;5096579;28;19909;-75
2022/11/26 09:19:38;;;;;;;;;;;13.10;99.90;;;;;;5095543;28;19999;-74
2022/11/26 09:22:03;;;;;;;;;;;13.10;99.90;;;;;;5096070;28;19915;-76
2022/11/26 09:24:29;;;;;;;;;;;13.10;99.90;;;;;;5095456;28;19912;-75
2022/11/26 09:26:55;;;;;;;;;;;13.10;99.90;;;;;;5095988;28;20106;-75
2022/11/26 09:29:21;;;;;;;;;;;13.10;99.90;;;;;;5095572;28;19908;-75
2022/11/26 09:31:47;;;;;;;;;;;13.20;99.90;;;;;;5095609;28;19923;-75
2022/11/26 09:34:13;;;;;;;;;;;13.20;99.90;;;;;;5096002;28;20003;-74
2022/11/26 09:36:39;;;;;;;;;;;13.20;99.90;;;;;;5095424;28;19912;-75
2022/11/26 09:39:05;;;;;;;;;;;13.20;99.90;;;;;;5095780;28;19935;-75
2022/11/26 09:41:39;;;;;;;;;;;13.20;99.90;;;;;;5095278;28;19948;-75
2022/11/26 09:44:21;;;;;;;;;;;13.20;99.90;;;;;;5095717;28;19995;-75
2022/11/26 09:47:04;;;;;;;;;;;13.30;99.90;;;;;;5095282;28;19943;-74
2022/11/26 09:49:33;;;;;;;;;;;13.30;99.90;;;;;;5094725;28;19953;-75
2022/11/26 09:51:59;;;;;;;;;;;13.30;99.90;;;;;;5095275;28;19934;-75
2022/11/26 09:54:26;;;;;;;;;;;13.30;99.90;;;;;;5077242;28;20357;-75
2022/11/26 09:57:03;;;;;;;;;;;13.30;99.90;;;;;;5095570;28;19957;-76
2022/11/26 09:59:29;;;;;;;;;;;13.40;99.90;;;;;;5094817;28;19921;-75
2022/11/26 10:01:55;;;;;;;;;;;13.30;99.90;;;;;;5095304;28;19918;-75
2022/11/26 10:04:27;;;;;;;;;;;13.30;99.90;;;;;;5095160;28;20003;-75
2022/11/26 10:07:05;;;;;;;;;;;13.30;99.90;;;;;;5095101;28;19916;-75
2022/11/26 10:09:31;;;;;;;;;;;13.30;99.90;;;;;;5094859;28;20269;-75
2022/11/26 10:11:56;;;;;;;;;;;13.30;99.90;;;;;;5094898;28;19909;-75
2022/11/26 10:14:31;;;;;;;;;;;13.40;99.90;;;;;;5095077;28;19915;-74
2022/11/26 10:17:15;;;;;;;;;;;13.40;99.90;;;;;;5095041;28;19915;-75
2022/11/26 10:19:56;;;;;;;;;;;13.40;99.90;;;;;;5094538;28;19995;-75
2022/11/26 10:22:23;;;;;;;;;;;13.40;99.90;;;;;;5094974;28;19908;-75
2022/11/26 10:24:49;;;;;;;;;;;13.50;99.90;;;;;;5093760;28;20048;-75
2022/11/26 10:27:17;;;;;;;;;;;13.40;99.90;;;;;;5094680;28;20416;-75
2022/11/26 10:29:45;;;;;;;;;;;13.40;99.90;;;;;;5094411;28;19908;-75
2022/11/26 10:32:24;;;;;;;;;;;13.40;99.90;;;;;;5094743;28;19992;-75
2022/11/26 10:34:51;;;;;;;;;;;13.40;99.90;;;;;;5094276;28;19908;-74
2022/11/26 10:37:18;;;;;;;;;;;13.40;99.90;;;;;;5094500;28;19908;-74
2022/11/26 10:39:44;;;;;;;;;;;13.40;99.90;;;;;;5094549;28;19916;-74
2022/11/26 10:42:17;;;;;;;;;;;13.50;99.90;;;;;;5094536;28;19979;-75
2022/11/26 10:44:42;;;;;;;;;;;13.40;99.90;;;;;;5075951;28;19908;-75
2022/11/26 10:47:14;;;;;;;;;;;13.50;99.90;;;;;;5094215;28;19908;-74
2022/11/26 10:49:40;;;;;;;;;;;13.50;99.90;;;;;;5094158;28;19912;-74
2022/11/26 10:52:07;;;;;;;;;;;13.50;99.90;;;;;;5094481;28;19908;-75
2022/11/26 10:54:36;;;;;;;;;;;13.50;99.90;;;;;;5094124;28;19909;-75
2022/11/26 10:57:11;;;;;;;;;;;13.50;99.90;;;;;;5093994;28;20284;-75
2022/11/26 10:59:39;;;;;;;;;;;13.50;99.90;;;;;;5093784;28;20332;-75
2022/11/26 11:02:25;;;;;;;;;;;13.50;99.90;;;;;;5093131;28;19947;-74
2022/11/26 11:04:52;;;;;;;;;;;13.60;99.90;;;;;;5092966;28;20040;-74
2022/11/26 11:07:26;;;;;;;;;;;13.50;99.90;;;;;;5075892;28;19915;-74
2022/11/26 11:10:00;;;;;;;;;;;13.50;99.90;;;;;;5093516;28;19908;-74
2022/11/26 11:12:26;;;;;;;;;;;13.50;99.90;;;;;;5093782;28;19916;-74
2022/11/26 11:14:51;;;;;;;;;;;13.60;99.90;;;;;;5093543;28;20123;-75
2022/11/26 11:17:43;;;;;;;;;;;13.60;99.90;;;;;;5093852;28;19909;-76
2022/11/26 11:20:15;;;;;;;;;;;13.60;99.90;;;;;;5074519;28;19920;-75
2022/11/26 11:22:41;;;;;;;;;;;13.70;99.90;;;;;;5093273;28;19969;-74
2022/11/26 11:25:27;;;;;;;;;;;13.70;99.90;;;;;;5093658;28;19908;-74
2022/11/26 11:27:54;;;;;;;;;;;13.70;99.90;;;;;;5093356;28;19909;-75
2022/11/26 11:30:24;;;;;;;;;;;13.70;99.90;;;;;;5093757;28;19935;-75
2022/11/26 11:32:50;;;;;;;;;;;13.70;99.90;;;;;;5092966;28;19919;-75
2022/11/26 11:35:15;;;;;;;;;;;13.70;99.90;;;;;;5093288;28;19908;-75
2022/11/26 11:38:07;;;;;;;;;;;13.60;99.90;;;;;;5092752;28;20371;-75
2022/11/26 11:40:39;;;;;;;;;;;13.60;99.90;;;;;;5090613;28;19919;-75
2022/11/26 11:43:05;;;;;;;;;;;13.70;99.90;;;;;;5093264;28;19915;-75
2022/11/26 11:45:37;;;;;;;;;;;13.70;99.90;;;;;;5093357;28;19908;-75
2022/11/26 11:48:21;;;;;;;;;;;13.70;99.90;;;;;;5093125;28;20273;-75
2022/11/26 11:51:13;;;;;;;;;;;13.70;99.90;;;;;;5092344;28;19955;-75
2022/11/26 11:53:45;;;;;;;;;;;13.60;99.90;;;;;;5090186;28;19912;-75
2022/11/26 11:56:27;;;;;;;;;;;13.60;99.90;;;;;;5092890;28;19949;-75
2022/11/26 11:58:53;;;;;;;;;;;13.60;99.90;;;;;;5092593;28;19995;-75
2022/11/26 12:01:32;;;;;;;;;;;13.50;99.90;;;;;;5092704;28;20396;-74
2022/11/26 12:04:04;;;;;;;;;;;13.60;99.90;;;;;;5092632;28;20036;-76
2022/11/26 12:06:30;;;;;;;;;;;13.60;99.90;;;;;;5092784;28;20006;-75
2022/11/26 12:09:19;;;;;;;;;;;13.60;99.90;;;;;;5092407;28;19946;-74
2022/11/26 12:11:59;;;;;;;;;;;13.60;99.90;;;;;;5074291;28;20285;-75
2022/11/26 12:14:33;;;;;;;;;;;13.60;99.90;;;;;;5096931;28;19908;-75
2022/11/26 12:17:03;;;;;;;;;;;13.60;99.90;;;;;;5097626;28;19912;-76
2022/11/26 12:19:35;;;;;;;;;;;13.60;99.90;;;;;;5097023;28;19912;-75
2022/11/26 12:22:05;;;;;;;;;;;13.60;99.90;;;;;;5097043;28;19911;-74
2022/11/26 12:24:36;;;;;;;;;;;13.60;99.90;;;;;;5097025;28;20272;-76
2022/11/26 12:27:03;;;;;;;;;;;13.60;99.90;;;;;;5096795;28;19915;-75
2022/11/26 12:29:38;;;;;;;;;;;13.60;99.90;;;;;;5096655;28;19930;-75
2022/11/26 12:32:15;;;;;;;;;;;13.70;99.90;;;;;;5096523;28;20438;-75
2022/11/26 12:34:48;;;;;;;;;;;13.60;99.90;;;;;;5096407;28;19912;-75
2022/11/26 12:37:14;;;;;;;;;;;13.70;99.90;;;;;;5078522;28;19912;-75
2022/11/26 12:39:39;;;;;;;;;;;13.70;99.90;;;;;;5096135;28;20374;-74
2022/11/26 12:42:18;;;;;;;;;;;13.60;99.90;;;;;;5096533;28;20258;-75
2022/11/26 12:44:48;;;;;;;;;;;13.70;99.90;;;;;;5111861;28;19908;-74
2022/11/26 12:47:22;;;;;;;;;;;13.70;99.90;;;;;;5096408;28;19915;-75
2022/11/26 12:49:48;;;;;;;;;;;13.60;99.90;;;;;;5096053;28;19908;-74
2022/11/26 12:52:32;;;;;;;;;;;13.70;99.90;;;;;;5096393;28;19908;-75
2022/11/26 12:55:20;;;;;;;;;;;13.60;99.90;;;;;;5096241;28;20362;-75
2022/11/26 12:57:58;;;;;;;;;;;13.60;99.90;;;;;;5095460;28;19920;-74
2022/11/26 13:00:34;;;;;;;;;;;13.60;99.90;;;;;;5096220;28;19915;-75
2022/11/26 13:03:00;;;;;;;;;;;13.60;99.90;;;;;;5096121;28;19966;-75
2022/11/26 13:05:33;;;;;;;;;;;13.60;99.90;;;;;;5094953;28;21611;-75
2022/11/26 13:08:17;;;;;;;;;;;13.50;99.90;;;;;;5096082;28;19916;-74
2022/11/26 13:11:00;;;;;;;;;;;13.50;99.90;;;;;;5095254;28;20281;-74
2022/11/26 13:13:38;;;;;;;;;;;13.60;99.90;;;;;;5096054;28;19912;-75
2022/11/26 13:16:25;;;;;;;;;;;13.60;99.90;;;;;;5095552;28;20011;-75
2022/11/26 13:18:54;;;;;;;;;;;13.60;99.90;;;;;;5094973;28;19958;-75
2022/11/26 13:21:22;;;;;;;;;;;13.50;99.90;;;;;;5095742;28;20404;-74
2022/11/26 13:24:03;;;;;;;;;;;13.50;99.90;;;;;;5094772;28;20011;-75
2022/11/26 13:26:47;;;;;;;;;;;13.50;99.90;;;;;;5095409;28;19919;-75
2022/11/26 13:29:21;;;;;;;;;;;13.40;99.90;;;;;;5095679;28;19908;-74
2022/11/26 13:31:46;;;;;;;;;;;13.40;99.90;;;;;;5095491;28;20007;-75
2022/11/26 13:34:24;;;;;;;;;;;13.40;99.90;;;;;;5095484;28;19936;-74
2022/11/26 13:36:56;;;;;;;;;;;13.50;99.90;;;;;;5094989;28;20364;-75
2022/11/26 13:39:22;;;;;;;;;;;13.40;99.90;;;;;;5095167;28;19970;-75
2022/11/26 13:42:20;;;;;;;;;;;13.40;99.90;;;;;;5076619;28;20354;-75
2022/11/26 13:44:50;;;;;;;;;;;13.40;99.90;;;;;;5071592;28;19909;-75
2022/11/26 13:47:19;;;;;;;;;;;13.40;99.90;;;;;;5095364;28;19914;-75
2022/11/26 13:49:49;;;;;;;;;;;13.40;99.90;;;;;;5094963;28;19913;-74
2022/11/26 13:52:15;;;;;;;;;;;13.40;99.90;;;;;;5095327;28;20361;-75
2022/11/26 13:54:46;;;;;;;;;;;13.40;99.90;;;;;;5094446;28;19968;-75
2022/11/26 13:57:23;;;;;;;;;;;13.40;99.90;;;;;;5076893;28;19920;-74
2022/11/26 13:59:50;;;;;;;;;;;13.50;99.90;;;;;;5094527;28;19916;-76
2022/11/26 14:02:31;;;;;;;;;;;13.50;99.90;;;;;;5094997;28;19923;-74
2022/11/26 14:04:57;;;;;;;;;;;13.50;99.90;;;;;;5094689;28;20592;-74
2022/11/26 14:07:22;;;;;;;;;;;13.50;99.90;;;;;;5094920;28;19951;-75
2022/11/26 14:09:50;;;;;;;;;;;13.50;99.90;;;;;;5094263;28;20011;-74
2022/11/26 14:12:16;;;;;;;;;;;13.50;99.90;;;;;;5094793;28;19908;-73
2022/11/26 14:14:44;;;;;;;;;;;13.50;99.90;;;;;;5094378;28;19995;-74
2022/11/26 14:17:11;;;;;;;;;;;13.50;99.90;;;;;;5094733;28;19908;-74
2022/11/26 14:19:40;;;;;;;;;;;13.50;99.90;;;;;;5076161;28;19916;-75
2022/11/26 14:22:06;;;;;;;;;;;13.60;99.90;;;;;;5095088;28;19999;-74
2022/11/26 14:24:47;;;;;;;;;;;13.60;99.90;;;;;;5094529;28;19954;-74